createdAt,value
2023-04-01T00:01:05.759Z,99112.19
2023-04-01T00:03:36.506Z,99091.69
2023-04-01T00:06:06.126Z,99113.50
2023-04-01T00:08:35.208Z,99120.84
2023-04-01T00:11:04.631Z,99112.72
2023-04-01T00:13:35.050Z,99106.28
2023-04-01T00:16:20.880Z,99106.59
2023-04-01T00:18:51.650Z,99108.28
2023-04-01T00:21:23.080Z,99110.50
2023-04-01T00:23:52.784Z,99123.66
2023-04-01T00:26:23.046Z,99126.19
2023-04-01T00:28:54.036Z,99123.78
2023-04-01T00:31:23.316Z,99111.00
2023-04-01T00:33:53.853Z,99116.34
2023-04-01T00:36:24.351Z,99104.03
2023-04-01T00:38:53.796Z,99112.44
2023-04-01T00:41:25.081Z,99085.44
2023-04-01T00:44:20.939Z,99103.19
2023-04-01T00:46:50.806Z,99105.03
2023-04-01T00:49:22.919Z,99110.34
2023-04-01T00:51:54.539Z,99109.50
2023-04-01T00:54:26.517Z,99096.09
2023-04-01T00:57:01.961Z,99101.53
2023-04-01T00:59:36.750Z,99097.19
2023-04-01T01:02:13.025Z,99102.38
2023-04-01T01:04:43.030Z,99078.44
2023-04-01T01:07:21.769Z,99093.69
2023-04-01T01:10:00.205Z,99095.66
2023-04-01T01:12:37.800Z,99096.34
2023-04-01T01:15:16.426Z,99088.50
2023-04-01T01:17:54.053Z,99103.22
2023-04-01T01:20:44.977Z,99078.44
2023-04-01T01:23:39.871Z,99112.16
2023-04-01T01:26:35.710Z,99106.03
2023-04-01T01:29:15.855Z,99108.81
2023-04-01T01:31:58.369Z,99109.38
2023-04-01T01:34:37.489Z,99092.44
2023-04-01T01:37:12.290Z,99112.44
2023-04-01T01:39:44.441Z,99118.34
2023-04-01T01:42:18.156Z,99052.00
2023-04-01T01:44:50.878Z,99094.56
2023-04-01T01:47:22.156Z,99108.53
2023-04-01T01:49:53.494Z,99082.50
2023-04-01T01:52:25.669Z,99081.66
2023-04-01T01:54:56.608Z,99110.22
2023-04-01T01:57:31.083Z,99133.59
2023-04-01T02:00:09.305Z,99109.81
2023-04-01T02:02:42.293Z,99135.69
2023-04-01T02:05:17.696Z,99115.94
2023-04-01T02:07:55.583Z,99133.59
2023-04-01T02:10:33.104Z,99141.00
2023-04-01T02:13:07.546Z,99087.94
2023-04-01T02:15:50.600Z,99128.72
2023-04-01T02:18:38.625Z,99116.66
2023-04-01T02:21:11.501Z,99108.22
2023-04-01T02:23:42.635Z,99125.03
2023-04-01T02:26:13.807Z,99132.44
2023-04-01T02:28:45.869Z,99126.03
2023-04-01T02:31:17.430Z,99134.00
2023-04-01T02:33:49.962Z,99130.56
2023-04-01T02:36:19.470Z,99130.34
2023-04-01T02:38:51.954Z,99131.50
2023-04-01T02:41:21.929Z,99115.53
2023-04-01T02:43:51.369Z,99118.75
2023-04-01T02:46:23.864Z,99117.47
2023-04-01T02:48:53.398Z,99126.31
2023-04-01T02:51:22.586Z,99116.75
2023-04-01T02:58:11.237Z,98991.97
2023-04-01T03:00:41.036Z,99064.56
2023-04-01T03:03:11.574Z,99076.31
2023-04-01T03:05:40.504Z,99126.94
2023-04-01T03:08:09.652Z,99096.22
2023-04-01T03:10:40.066Z,99071.28
2023-04-01T03:13:13.094Z,99122.53
2023-04-01T03:15:42.390Z,99106.25
2023-04-01T03:18:11.567Z,99100.69
2023-04-01T03:20:41.007Z,99120.28
2023-04-01T03:23:10.044Z,99109.06
2023-04-01T03:25:40.413Z,99081.38
2023-04-01T03:28:09.792Z,99113.28
2023-04-01T03:30:42.686Z,99099.81
2023-04-01T03:33:12.266Z,99117.47
2023-04-01T03:35:44.207Z,99127.03
2023-04-01T03:38:13.409Z,99135.41
2023-04-01T03:40:46.103Z,99134.56
2023-04-01T03:43:15.152Z,99136.50
2023-04-01T03:45:49.020Z,99131.47
2023-04-01T03:48:18.070Z,99147.72
2023-04-01T03:50:47.347Z,99106.72
2023-04-01T03:53:20.370Z,99117.22
2023-04-01T03:55:52.365Z,99133.88
2023-04-01T03:58:21.790Z,99148.63
2023-04-01T04:00:51.862Z,99152.03
2023-04-01T04:03:22.320Z,99118.31
2023-04-01T04:05:52.067Z,99149.09
2023-04-01T04:08:22.776Z,99145.88
2023-04-01T04:10:59.063Z,99142.41
2023-04-01T04:13:28.438Z,99117.88
2023-04-01T04:16:04.584Z,99165.34
2023-04-01T04:18:34.988Z,99164.28
2023-04-01T04:21:07.052Z,99177.09
2023-04-01T04:23:39.486Z,99171.47
2023-04-01T04:26:14.653Z,99171.75
2023-04-01T04:28:50.117Z,99135.00
2023-04-01T04:31:25.592Z,99075.34
2023-04-01T04:33:57.923Z,99117.47
2023-04-01T04:39:21.514Z,99102.91
2023-04-01T04:42:21.801Z,99194.50
2023-04-01T04:45:04.161Z,99171.53
2023-04-01T04:47:46.560Z,99165.59
2023-04-01T04:50:24.037Z,99166.78
2023-04-01T04:52:54.174Z,99167.06
2023-04-01T04:55:23.951Z,99123.06
2023-04-01T04:58:09.855Z,99145.97
2023-04-01T05:00:41.909Z,99117.72
2023-04-01T05:03:19.609Z,99143.69
2023-04-01T05:05:53.213Z,99150.16
2023-04-01T05:08:31.876Z,99140.84
2023-04-01T05:11:20.671Z,99162.16
2023-04-01T05:13:52.296Z,99138.28
2023-04-01T05:16:23.040Z,99139.06
2023-04-01T05:18:52.459Z,99151.19
2023-04-01T05:21:21.591Z,99151.78
2023-04-01T05:23:51.800Z,99140.34
2023-04-01T05:26:21.764Z,99155.47
2023-04-01T05:28:52.450Z,99132.94
2023-04-01T05:31:25.260Z,99162.31
2023-04-01T05:33:57.894Z,99140.13
2023-04-01T05:36:33.285Z,99155.84
2023-04-01T05:39:02.934Z,99016.22
2023-04-01T05:41:34.414Z,99125.63
2023-04-01T05:44:34.774Z,99164.31
2023-04-01T05:47:10.156Z,99165.59
2023-04-01T05:49:40.169Z,99159.88
2023-04-01T05:52:13.771Z,99090.38
2023-04-01T05:54:43.517Z,99163.84
2023-04-01T05:57:16.096Z,99122.53
2023-04-01T05:59:47.788Z,99182.91
2023-04-01T06:02:24.465Z,99172.84
2023-04-01T06:05:04.797Z,99162.53
2023-04-01T06:07:37.729Z,99172.50
2023-04-01T06:10:22.337Z,99137.53
2023-04-01T06:13:01.457Z,99149.59
2023-04-01T06:15:44.273Z,99134.63
2023-04-01T06:18:37.513Z,99145.63
2023-04-01T06:21:24.754Z,99182.25
2023-04-01T06:24:25.478Z,99188.81
2023-04-01T06:27:05.946Z,99181.69
2023-04-01T06:30:03.141Z,99167.25
2023-04-01T06:32:56.650Z,99166.75
2023-04-01T06:35:52.957Z,99153.25
2023-04-01T06:39:02.889Z,99159.66
2023-04-01T06:42:11.402Z,99170.38
2023-04-01T06:44:56.980Z,99155.09
2023-04-01T06:48:02.108Z,99154.03
2023-04-01T06:51:04.355Z,99171.41
2023-04-01T06:54:07.145Z,99170.53
2023-04-01T06:57:12.370Z,99169.31
2023-04-01T06:59:43.007Z,99165.84
2023-04-01T07:02:25.379Z,99169.03
2023-04-01T07:05:03.214Z,99153.72
2023-04-01T07:07:40.452Z,99176.66
2023-04-01T07:10:19.834Z,99149.09
2023-04-01T07:13:32.200Z,99181.09
2023-04-01T07:16:18.995Z,99091.38
2023-04-01T07:18:53.790Z,99173.38
2023-04-01T07:21:41.286Z,99174.06
2023-04-01T07:24:26.878Z,99184.75
2023-04-01T07:27:12.798Z,99112.44
2023-04-01T07:29:43.544Z,99182.66
2023-04-01T07:32:30.674Z,99130.03
2023-04-01T07:35:11.898Z,99163.44
2023-04-01T07:38:01.560Z,99090.28
2023-04-01T07:40:50.886Z,99128.63
2023-04-01T07:43:47.203Z,99125.31
2023-04-01T07:46:44.354Z,99136.34
2023-04-01T07:49:21.197Z,99176.81
2023-04-01T07:52:02.646Z,99148.41
2023-04-01T07:54:45.031Z,99183.09
2023-04-01T07:57:23.527Z,99138.19
2023-04-01T08:00:04.228Z,99173.53
2023-04-01T08:03:18.254Z,99156.75
2023-04-01T08:06:03.998Z,99192.31
2023-04-01T08:08:57.493Z,99153.44
2023-04-01T08:12:06.780Z,99193.31
2023-04-01T08:15:08.677Z,99145.88
2023-04-01T08:17:47.015Z,99198.81
2023-04-01T08:20:35.959Z,99196.56
2023-04-01T08:23:15.705Z,99207.03
2023-04-01T08:26:00.816Z,99205.34
2023-04-01T08:28:41.820Z,99081.63
2023-04-01T08:31:18.553Z,99193.81
2023-04-01T08:33:49.797Z,99126.34
2023-04-01T08:36:24.517Z,99176.75
2023-04-01T08:39:13.812Z,99211.84
2023-04-01T08:42:10.638Z,99217.06
2023-04-01T08:45:12.021Z,99214.84
2023-04-01T08:48:13.833Z,99216.09
2023-04-01T08:51:06.504Z,99216.16
2023-04-01T08:53:55.033Z,99201.03
2023-04-01T08:56:34.193Z,99198.34
2023-04-01T08:59:34.824Z,99199.97
2023-04-01T09:02:48.326Z,99204.41
2023-04-01T09:06:14.009Z,99211.22
2023-04-01T09:09:23.124Z,99170.78
2023-04-01T09:12:34.941Z,99084.03
2023-04-01T09:15:40.566Z,99212.75
2023-04-01T09:18:51.955Z,99210.66
2023-04-01T09:22:03.767Z,99213.78
2023-04-01T09:25:13.115Z,99205.94
2023-04-01T09:27:49.508Z,99179.78
2023-04-01T09:30:44.189Z,99200.66
2023-04-01T09:33:42.948Z,99197.84
2023-04-01T09:36:27.286Z,99203.00
2023-04-01T09:39:02.223Z,99180.72
2023-04-01T09:41:47.319Z,99198.22
2023-04-01T09:44:33.138Z,99129.72
2023-04-01T09:47:28.064Z,99085.25
2023-04-01T09:50:19.639Z,99080.22
2023-04-01T09:52:56.941Z,99117.19
2023-04-01T09:56:08.821Z,99179.78
2023-04-01T09:59:23.008Z,99193.88
2023-04-01T10:03:03.445Z,99185.53
2023-04-01T10:06:03.932Z,99206.22
2023-04-01T10:09:06.502Z,99197.91
2023-04-01T10:12:06.260Z,99199.03
2023-04-01T10:15:17.186Z,99190.00
2023-04-01T10:18:18.456Z,99185.78
2023-04-01T10:21:09.852Z,99172.22
2023-04-01T10:24:09.679Z,99173.16
2023-04-01T10:27:19.131Z,99167.78
2023-04-01T10:30:43.467Z,99170.97
2023-04-01T10:33:49.530Z,99164.22
2023-04-01T10:36:50.253Z,99142.16
2023-04-01T10:40:08.350Z,99161.75
2023-04-01T10:43:48.918Z,99155.09
2023-04-01T10:46:56.104Z,99148.44
2023-04-01T10:49:49.056Z,99159.22
2023-04-01T10:52:49.831Z,99149.31
2023-04-01T10:56:13.701Z,99157.81
2023-04-01T10:59:33.713Z,99147.28
2023-04-01T11:02:53.317Z,99150.72
2023-04-01T11:06:11.053Z,99156.72
2023-04-01T11:09:19.432Z,99156.84
2023-04-01T11:12:19.040Z,99151.53
2023-04-01T11:15:29.216Z,99150.53
2023-04-01T11:18:48.041Z,99140.03
2023-04-01T11:21:50.693Z,99148.03
2023-04-01T11:24:53.199Z,99151.47
2023-04-01T11:28:06.348Z,99132.03
2023-04-01T11:31:09.955Z,99076.06
2023-04-01T11:33:49.688Z,99113.50
2023-04-01T11:36:28.296Z,99117.72
2023-04-01T11:39:23.025Z,99135.22
2023-04-01T11:42:19.843Z,99124.84
2023-04-01T11:45:26.639Z,99121.13
2023-04-01T11:48:25.482Z,99120.94
2023-04-01T11:51:07.434Z,99064.19
2023-04-01T11:53:50.929Z,99118.75
2023-04-01T11:56:32.886Z,99106.47
2023-04-01T11:59:22.868Z,99114.59
2023-04-01T12:02:21.368Z,99098.22
2023-04-01T12:05:02.977Z,99088.31
2023-04-01T12:08:04.765Z,99088.88
2023-04-01T12:10:42.333Z,99070.75
2023-04-01T12:13:26.076Z,99092.81
2023-04-01T12:16:11.452Z,99097.09
2023-04-01T12:18:52.588Z,99096.59
2023-04-01T12:21:33.146Z,99101.34
2023-04-01T12:24:28.150Z,99094.56
2023-04-01T12:27:09.288Z,99091.94
2023-04-01T12:30:03.093Z,99093.00
2023-04-01T12:32:37.714Z,99104.28
2023-04-01T12:35:22.092Z,99094.19
2023-04-01T12:38:05.442Z,99097.84
2023-04-01T12:40:57.809Z,99091.38
2023-04-01T12:43:51.666Z,99085.13
2023-04-01T12:46:28.264Z,99077.56
2023-04-01T12:49:22.613Z,99085.59
2023-04-01T12:52:09.488Z,99093.19
2023-04-01T12:55:17.467Z,99086.78
2023-04-01T12:58:19.713Z,99084.50
2023-04-01T13:01:06.177Z,99075.44
2023-04-01T13:03:55.667Z,99072.03
2023-04-01T13:06:42.438Z,99070.84
2023-04-01T13:09:26.161Z,99032.25
2023-04-01T13:12:08.583Z,99070.88
2023-04-01T13:15:22.527Z,99070.47
2023-04-01T13:17:59.888Z,99064.25
2023-04-01T13:20:43.670Z,99070.72
2023-04-01T13:23:38.457Z,99049.25
2023-04-01T13:26:18.577Z,99067.53
2023-04-01T13:28:56.107Z,99067.81
2023-04-01T13:31:51.787Z,99059.53
2023-04-01T13:34:34.607Z,99042.16
2023-04-01T13:37:21.292Z,99056.53
2023-04-01T13:40:07.217Z,99058.28
2023-04-01T13:42:42.814Z,99013.66
2023-04-01T13:45:18.542Z,99044.47
2023-04-01T13:48:22.098Z,99059.78
2023-04-01T13:51:20.675Z,99061.91
2023-04-01T13:54:12.023Z,99058.22
2023-04-01T13:56:50.952Z,99050.50
2023-04-01T13:59:48.871Z,99056.75
2023-04-01T14:02:39.946Z,99047.16
2023-04-01T14:05:43.470Z,99051.94
2023-04-01T14:08:20.059Z,99051.72
2023-04-01T14:11:01.253Z,99049.34
2023-04-01T14:13:37.215Z,99049.22
2023-04-01T14:16:24.858Z,99063.78
2023-04-01T14:19:06.533Z,99026.28
2023-04-01T14:21:40.305Z,99071.88
2023-04-01T14:24:34.072Z,99068.56
2023-04-01T14:27:33.987Z,99051.69
2023-04-01T14:30:22.677Z,99073.44
2023-04-01T14:33:03.350Z,99063.63
2023-04-01T14:35:39.996Z,99046.31
2023-04-01T14:38:45.785Z,99070.84
2023-04-01T14:41:30.903Z,99064.44
2023-04-01T14:44:40.947Z,99064.47
2023-04-01T14:47:26.867Z,99041.50
2023-04-01T14:50:09.078Z,99055.34
2023-04-01T14:52:42.728Z,99077.06
2023-04-01T14:55:28.683Z,99057.59
2023-04-01T14:58:06.975Z,99068.38
2023-04-01T15:00:50.037Z,99068.06
2023-04-01T15:03:24.629Z,99078.81
2023-04-01T15:06:03.330Z,99079.88
2023-04-01T15:08:46.500Z,99054.69
2023-04-01T15:11:35.492Z,99084.03
2023-04-01T15:14:20.935Z,99080.59
2023-04-01T15:17:07.831Z,99088.06
2023-04-01T15:19:49.173Z,99087.63
2023-04-01T15:22:44.148Z,99099.00
2023-04-01T15:25:36.200Z,99084.72
2023-04-01T15:28:16.926Z,99093.97
2023-04-01T15:30:56.639Z,99074.00
2023-04-01T15:33:56.602Z,99102.69
2023-04-01T15:36:41.452Z,99092.91
2023-04-01T15:39:22.862Z,99114.09
2023-04-01T15:42:16.049Z,99100.66
2023-04-01T15:44:58.111Z,99079.06
2023-04-01T15:47:48.612Z,99119.16
2023-04-01T15:50:59.391Z,99124.78
2023-04-01T15:56:53.895Z,99132.38
2023-04-01T15:59:55.822Z,99116.13
2023-04-01T16:02:33.758Z,99134.34
2023-04-01T16:05:12.817Z,99135.75
2023-04-01T16:07:57.726Z,99132.31
2023-04-01T16:10:55.318Z,99128.50
2023-04-01T16:13:37.290Z,99159.66
2023-04-01T16:16:19.555Z,99120.13
2023-04-01T16:19:12.820Z,99133.69
2023-04-01T16:21:49.520Z,99165.03
2023-04-01T16:24:26.556Z,99165.00
2023-04-01T16:27:05.365Z,99145.59
2023-04-01T16:29:43.225Z,99168.34
2023-04-01T16:32:23.503Z,99180.75
2023-04-01T16:35:06.374Z,99174.41
2023-04-01T16:37:41.382Z,99183.75
2023-04-01T16:40:25.342Z,99161.00
2023-04-01T16:42:58.475Z,99181.75
2023-04-01T16:45:37.738Z,99191.16
2023-04-01T16:48:13.891Z,99198.16
2023-04-01T16:50:56.953Z,99167.84
2023-04-01T16:53:39.878Z,99198.31
2023-04-01T16:56:15.971Z,99188.47
2023-04-01T16:59:00.560Z,99201.84
2023-04-01T17:01:42.432Z,99190.44
2023-04-01T17:04:21.616Z,99203.88
2023-04-01T17:07:00.430Z,99208.88
2023-04-01T17:09:44.645Z,99210.84
2023-04-01T17:12:22.294Z,99201.50
2023-04-01T17:15:02.532Z,99191.78
2023-04-01T17:17:42.838Z,99189.44
2023-04-01T17:20:33.911Z,99207.19
2023-04-01T17:23:16.900Z,99212.22
2023-04-01T17:26:06.276Z,99160.09
2023-04-01T17:28:51.664Z,99173.47
2023-04-01T17:31:39.271Z,99228.91
2023-04-01T17:34:40.665Z,99235.25
2023-04-01T17:37:31.333Z,99180.16
2023-04-01T17:40:18.474Z,99110.44
2023-04-01T17:42:59.360Z,99106.03
2023-04-01T17:45:35.942Z,99220.81
2023-04-01T17:48:22.788Z,99051.50
2023-04-01T17:51:06.575Z,99037.47
2023-04-01T17:53:44.915Z,99232.00
2023-04-01T17:56:50.643Z,99190.69
2023-04-01T17:59:27.369Z,99235.75
2023-04-01T18:02:10.025Z,99231.66
2023-04-01T18:05:19.194Z,99194.34
2023-04-01T18:08:14.869Z,99194.78
2023-04-01T18:10:58.897Z,99224.09
2023-04-01T18:14:03.079Z,99228.75
2023-04-01T18:16:46.793Z,99228.19
2023-04-01T18:19:26.185Z,99232.22
2023-04-01T18:21:59.617Z,99248.16
2023-04-01T18:24:35.572Z,99192.81
2023-04-01T18:27:14.544Z,99151.78
2023-04-01T18:29:51.932Z,99235.56
2023-04-01T18:32:35.854Z,99232.22
2023-04-01T18:35:18.479Z,99228.44
2023-04-01T18:37:56.856Z,99173.00
2023-04-01T18:40:35.982Z,99232.22
2023-04-01T18:43:15.231Z,99240.72
2023-04-01T18:45:53.351Z,99179.19
2023-04-01T18:48:46.744Z,99213.84
2023-04-01T18:51:27.218Z,99213.00
2023-04-01T18:54:14.925Z,99225.28
2023-04-01T18:56:51.201Z,99177.03
2023-04-01T18:59:31.713Z,99246.16
2023-04-01T19:02:11.272Z,99246.84
2023-04-01T19:04:59.199Z,99176.97
2023-04-01T19:07:52.437Z,99179.44
2023-04-01T19:10:32.531Z,99242.53
2023-04-01T19:13:18.217Z,99257.94
2023-04-01T19:15:55.295Z,99249.84
2023-04-01T19:18:56.666Z,99214.53
2023-04-01T19:21:30.899Z,99243.97
2023-04-01T19:24:29.576Z,99249.19
2023-04-01T19:27:05.523Z,99241.31
2023-04-01T19:29:51.486Z,99236.44
2023-04-01T19:32:35.589Z,99256.44
2023-04-01T19:35:20.185Z,99248.03
2023-04-01T19:37:56.908Z,99224.41
2023-04-01T19:40:48.252Z,99228.53
2023-04-01T19:43:35.673Z,99243.66
2023-04-01T19:46:15.178Z,99212.31
2023-04-01T19:48:58.543Z,99235.38
2023-04-01T19:51:34.974Z,99233.22
2023-04-01T19:54:20.490Z,99245.06
2023-04-01T19:56:54.753Z,99250.78
2023-04-01T19:59:32.626Z,99236.03
2023-04-01T20:02:29.888Z,99250.78
2023-04-01T20:05:06.504Z,99249.91
2023-04-01T20:07:43.118Z,99246.69
2023-04-01T20:10:18.921Z,99240.66
2023-04-01T20:12:58.831Z,99231.03
2023-04-01T20:15:35.789Z,99247.94
2023-04-01T20:18:18.598Z,99238.09
2023-04-01T20:21:01.765Z,99237.91
2023-04-01T20:23:44.174Z,99231.03
2023-04-01T20:26:17.537Z,99241.38
2023-04-01T20:29:01.016Z,99238.84
2023-04-01T20:31:39.671Z,99205.47
2023-04-01T20:34:41.962Z,99249.06
2023-04-01T20:37:26.871Z,99248.47
2023-04-01T20:40:35.862Z,99253.75
2023-04-01T20:43:43.969Z,99220.56
2023-04-01T20:49:52.883Z,99198.66
2023-04-01T20:52:32.176Z,99260.41
2023-04-01T20:55:24.864Z,99122.06
2023-04-01T20:58:31.738Z,99268.72
2023-04-01T21:01:15.762Z,99193.16
2023-04-01T21:07:39.120Z,99190.84
2023-04-01T21:10:25.647Z,99214.88
2023-04-01T21:13:06.146Z,99230.75
2023-04-01T21:20:48.377Z,99270.66
2023-04-01T21:20:50.475Z,99251.78
2023-04-01T21:23:34.276Z,99229.13
2023-04-01T21:31:47.495Z,99251.56
2023-04-01T21:34:40.501Z,99258.03
2023-04-01T21:37:32.049Z,99259.91
2023-04-01T21:40:38.138Z,99209.34
2023-04-01T21:43:20.065Z,99245.28
2023-04-01T21:46:09.185Z,99258.34
2023-04-01T21:49:04.157Z,99255.28
2023-04-01T21:51:59.831Z,99261.69
2023-04-01T21:54:53.313Z,99248.94
2023-04-01T21:58:03.605Z,99269.59
2023-04-01T22:00:35.013Z,99266.88
2023-04-01T22:03:36.927Z,99269.63
2023-04-01T22:06:18.479Z,99236.38
2023-04-01T22:08:56.669Z,99267.41
2023-04-01T22:11:36.535Z,99258.84
2023-04-01T22:14:16.140Z,99252.69
2023-04-01T22:16:51.262Z,99259.63
2023-04-01T22:19:29.937Z,99226.91
2023-04-01T22:22:06.358Z,99269.09
2023-04-01T22:24:46.147Z,99260.63
2023-04-01T22:27:31.948Z,99252.75
2023-04-01T22:30:12.141Z,99250.25
2023-04-01T22:32:47.372Z,99266.25
2023-04-01T22:35:32.806Z,99264.66
2023-04-01T22:38:16.916Z,99257.34
2023-04-01T22:40:51.353Z,99255.78
2023-04-01T22:43:32.290Z,99252.16
2023-04-01T22:46:18.640Z,99250.91
2023-04-01T22:48:55.071Z,99253.31
2023-04-01T22:51:32.760Z,99263.28
2023-04-01T22:54:10.163Z,99260.31
2023-04-01T22:56:43.187Z,99263.06
2023-04-01T22:59:18.247Z,99254.34
2023-04-01T23:01:56.300Z,99250.34
2023-04-01T23:04:31.715Z,99259.63
2023-04-01T23:07:06.136Z,99245.13
2023-04-01T23:09:38.008Z,99266.69
2023-04-01T23:12:11.601Z,99267.00
2023-04-01T23:14:49.132Z,99254.13
2023-04-01T23:17:34.158Z,99260.22
2023-04-01T23:23:56.157Z,99105.22
2023-04-01T23:26:36.464Z,99102.31
2023-04-01T23:29:41.001Z,99160.63
2023-04-01T23:32:18.333Z,99093.53
2023-04-01T23:35:00.770Z,99069.34
2023-04-01T23:37:30.496Z,99070.44
2023-04-01T23:40:02.265Z,99204.13
2023-04-01T23:42:35.272Z,99144.47
2023-04-01T23:45:15.521Z,99254.69
2023-04-01T23:47:45.678Z,99235.41
2023-04-01T23:50:20.394Z,99261.00
2023-04-01T23:52:59.805Z,99248.00
2023-04-01T23:55:33.526Z,99239.66
2023-04-01T23:58:11.954Z,99263.91
